Thal Weather



Thal's Current Weather

Temprature 31.465o clear sky

clear sky

Rain: 0 %

Min Temprature31.465o
Max Temprature31.465o
Humidity21
Wind Speed2.93 m/h
Sun Rise06:02:51
Sun Set18:21:39
Current Time: 18-Sep-2019 16:36:49
Lat/Lon: 33.37, 70.55




Thal's Geo Location



Thal's Weather Forecast

Time Overall Temp Min Temp Max Temp Humidity Wind Speed Rain
18-Sep-2019 (Wed)
17:00:00 clear sky 31.500 31.465 31.500 21 2.93 m/h 0 %
20:00:00 clear sky 26.670 26.644 26.670 32 1.23 m/h 0 %
23:00:00 clear sky 24.830 24.815 24.830 36 0.87 m/h 0 %
19-Sep-2019 (Thu)
02:00:00 clear sky 23.460 23.450 23.460 39 0.57 m/h 0 %
05:00:00 clear sky 22.250 22.250 22.250 40 0.98 m/h 0 %
08:00:00 clear sky 26.250 26.250 26.250 33 1.65 m/h 0 %
11:00:00 clear sky 29.150 29.150 29.150 30 2.48 m/h 0 %
14:00:00 clear sky 31.350 31.350 31.350 24 4.13 m/h 0 %
17:00:00 clear sky 30.850 30.850 30.850 24 4.32 m/h 0 %
20:00:00 clear sky 26.370 26.370 26.370 34 1.26 m/h 0 %
23:00:00 clear sky 24.638 24.638 24.638 38 0.89 m/h 0 %
20-Sep-2019 (Fri)
02:00:00 clear sky 23.356 23.356 23.356 42 0.68 m/h 0 %
05:00:00 clear sky 22.673 22.673 22.673 50 1.71 m/h 0 %
08:00:00 clear sky 25.450 25.450 25.450 46 2.01 m/h 0 %
11:00:00 clear sky 27.950 27.950 27.950 43 3.05 m/h 0 %
14:00:00 clear sky 30.350 30.350 30.350 34 4.26 m/h 0 %
17:00:00 clear sky 30.250 30.250 30.250 31 3.72 m/h 0 %
20:00:00 clear sky 26.450 26.450 26.450 44 0.99 m/h 0 %
23:00:00 clear sky 24.950 24.950 24.950 47 0.65 m/h 0 %
21-Sep-2019 (Sat)
02:00:00 clear sky 23.450 23.450 23.450 56 2.25 m/h 0 %
05:00:00 clear sky 22.264 22.264 22.264 65 1.4 m/h 0 %
08:00:00 clear sky 24.650 24.650 24.650 55 1.58 m/h 0 %
11:00:00 clear sky 27.850 27.850 27.850 44 2.56 m/h 0 %
14:00:00 clear sky 30.450 30.450 30.450 33 3.44 m/h 0 %
17:00:00 clear sky 30.250 30.250 30.250 30 3.2 m/h 0 %
20:00:00 clear sky 26.450 26.450 26.450 41 1.96 m/h 0 %
23:00:00 clear sky 24.835 24.835 24.835 45 0.94 m/h 0 %
22-Sep-2019 (Sun)
02:00:00 clear sky 23.650 23.650 23.650 49 0.57 m/h 0 %
05:00:00 clear sky 22.696 22.696 22.696 53 1.43 m/h 0 %
08:00:00 clear sky 26.192 26.192 26.192 44 1.39 m/h 0 %
11:00:00 clear sky 29.003 29.003 29.003 39 2.96 m/h 0 %
14:00:00 clear sky 31.250 31.250 31.250 31 3.33 m/h 0 %
17:00:00 clear sky 31.150 31.150 31.150 29 3.43 m/h 0 %
20:00:00 clear sky 26.825 26.825 26.825 42 1.04 m/h 0 %
23:00:00 clear sky 25.582 25.582 25.582 43 1.17 m/h 0 %
23-Sep-2019 (Mon)
02:00:00 clear sky 24.203 24.203 24.203 47 0.91 m/h 0 %
05:00:00 clear sky 23.277 23.277 23.277 50 1.5 m/h 0 %
08:00:00 clear sky 26.644 26.644 26.644 42 1.65 m/h 0 %
11:00:00 clear sky 29.577 29.577 29.577 36 2.85 m/h 0 %
14:00:00 clear sky 31.704 31.704 31.704 29 3.37 m/h 0 %

Famous Cities (61)